Time;durP1;ratioP1;P1;durP2;ratioP2;P2;SDS_P1;SDS_P2;PMS_P1;PMS_P2;Temp;Humidity;BMP_temperature;BMP_pressure;BME280_temperature;BME280_humidity;BME280_pressure;Samples;Min_cycle;Max_cycle;Signal;HPM_P1;HPM_P2
2021/10/02 00:35:05;;;;;;;35.83;17.60;;;13.50;99.90;;;;;;4994241;28;20199;-66
2021/10/02 00:37:45;;;;;;;40.17;17.33;;;13.50;99.90;;;;;;5058474;28;20765;-65
2021/10/02 00:45:47;;;;;;;45.17;17.40;;;13.40;99.90;;;;;;5070479;28;20257;-66
2021/10/02 00:48:16;;;;;;;29.77;15.23;;;13.40;99.90;;;;;;5074998;28;20250;-66
2021/10/02 00:50:46;;;;;;;36.50;16.10;;;13.40;99.90;;;;;;5073906;28;20232;-66
2021/10/02 00:53:14;;;;;;;31.37;14.53;;;13.30;99.90;;;;;;5069930;28;20192;-66
2021/10/02 00:55:44;;;;;;;27.53;14.10;;;13.30;99.90;;;;;;5072869;28;20731;-66
2021/10/02 00:58:13;;;;;;;32.07;14.47;;;13.20;99.90;;;;;;5071035;28;20239;-66
2021/10/02 01:00:45;;;;;;;27.30;14.87;;;13.20;99.90;;;;;;5071925;28;20238;-66
2021/10/02 01:03:27;;;;;;;30.27;14.97;;;13.10;99.90;;;;;;5068745;28;20226;-65
2021/10/02 01:06:15;;;;;;;24.63;14.03;;;13.10;99.90;;;;;;5064119;28;20196;-66
2021/10/02 01:08:50;;;;;;;25.57;14.27;;;13.00;99.90;;;;;;5054656;28;20234;-66
2021/10/02 01:11:28;;;;;;;30.30;14.47;;;13.10;99.90;;;;;;5073285;28;20195;-66
2021/10/02 01:14:05;;;;;;;25.53;13.43;;;13.10;99.90;;;;;;5079674;28;20589;-65
2021/10/02 01:16:37;;;;;;;25.10;13.20;;;13.10;99.90;;;;;;5072916;28;20735;-66
2021/10/02 01:19:37;;;;;;;28.63;13.53;;;13.10;99.90;;;;;;5074720;28;20303;-66
2021/10/02 01:22:15;;;;;;;26.50;12.33;;;13.00;99.90;;;;;;5063213;28;20204;-65
2021/10/02 01:25:04;;;;;;;25.47;13.20;;;12.90;99.90;;;;;;5068555;28;20226;-66
2021/10/02 01:27:51;;;;;;;21.77;11.80;;;12.90;99.90;;;;;;5072446;28;20274;-66
2021/10/02 01:30:33;;;;;;;26.20;11.67;;;12.90;99.90;;;;;;5076693;28;20770;-66
2021/10/02 01:33:12;;;;;;;18.97;10.70;;;12.80;99.90;;;;;;5063744;28;20197;-67
2021/10/02 01:35:48;;;;;;;25.13;11.33;;;12.80;99.90;;;;;;5068163;28;20281;-66
2021/10/02 01:49:29;;;;;;;17.13;10.60;;;12.50;99.90;;;;;;5077818;28;20223;-66
2021/10/02 01:51:58;;;;;;;20.70;10.83;;;12.50;99.90;;;;;;5073314;28;20780;-66
2021/10/02 01:54:29;;;;;;;24.87;11.17;;;12.40;99.90;;;;;;5060949;28;20261;-65
2021/10/02 01:56:58;;;;;;;24.20;11.00;;;12.40;99.90;;;;;;5067837;28;20238;-66
2021/10/02 01:59:31;;;;;;;23.80;11.77;;;12.40;99.90;;;;;;5068733;28;20204;-66
2021/10/02 02:02:01;;;;;;;24.73;11.27;;;12.30;99.90;;;;;;5061648;28;20287;-66
2021/10/02 02:04:32;;;;;;;25.90;11.63;;;12.30;99.90;;;;;;5069076;28;20233;-66
2021/10/02 02:07:02;;;;;;;22.20;11.50;;;12.30;99.90;;;;;;5061461;28;20337;-66
2021/10/02 02:09:38;;;;;;;22.87;11.67;;;12.20;99.90;;;;;;5070599;28;20215;-66
2021/10/02 02:12:10;;;;;;;20.67;11.50;;;12.20;99.90;;;;;;5072340;28;20198;-66
2021/10/02 02:14:44;;;;;;;23.30;11.57;;;12.10;99.90;;;;;;5071706;28;20196;-66
2021/10/02 02:17:16;;;;;;;28.07;12.47;;;12.10;99.90;;;;;;5065165;28;20231;-66
2021/10/02 02:19:46;;;;;;;23.33;12.50;;;12.10;99.90;;;;;;5069884;28;20235;-66
2021/10/02 02:22:15;;;;;;;33.20;13.10;;;12.10;99.90;;;;;;5070454;28;20654;-66
2021/10/02 02:24:43;;;;;;;29.53;13.53;;;12.00;99.90;;;;;;5070107;28;20231;-66
2021/10/02 02:27:11;;;;;;;30.37;13.27;;;12.00;99.90;;;;;;5077591;28;20868;-67
2021/10/02 02:29:42;;;;;;;22.00;13.17;;;12.00;99.90;;;;;;5085136;28;20268;-66
2021/10/02 02:32:10;;;;;;;32.97;14.03;;;12.00;99.90;;;;;;5067718;28;20231;-66
2021/10/02 02:34:38;;;;;;;30.40;13.70;;;12.00;99.90;;;;;;5066299;28;20250;-66
2021/10/02 02:37:07;;;;;;;31.20;14.30;;;12.00;99.90;;;;;;5063018;28;20299;-66
2021/10/02 02:39:36;;;;;;;29.73;14.17;;;12.00;99.90;;;;;;5066728;28;20686;-66
2021/10/02 02:42:04;;;;;;;26.37;13.73;;;11.90;99.90;;;;;;5064476;28;20197;-66
2021/10/02 02:44:34;;;;;;;31.37;13.97;;;11.90;99.90;;;;;;5068411;28;20275;-65
2021/10/02 02:47:07;;;;;;;33.17;14.97;;;11.90;99.90;;;;;;5063296;28;20260;-66
2021/10/02 02:49:43;;;;;;;34.33;15.20;;;11.90;99.90;;;;;;5067982;28;20246;-66
2021/10/02 02:52:16;;;;;;;37.20;15.30;;;11.90;99.90;;;;;;5064618;28;20200;-66
2021/10/02 02:54:51;;;;;;;33.10;15.63;;;11.90;99.90;;;;;;5064871;28;20554;-65
2021/10/02 02:57:22;;;;;;;29.87;15.40;;;11.80;99.90;;;;;;5071378;28;20230;-66
2021/10/02 02:59:58;;;;;;;31.33;15.87;;;11.80;99.90;;;;;;5068922;28;20219;-66
2021/10/02 03:02:28;;;;;;;27.83;15.57;;;11.80;99.90;;;;;;5069691;28;20233;-66
2021/10/02 03:05:00;;;;;;;36.97;16.60;;;11.70;99.90;;;;;;5071212;28;20220;-66
2021/10/02 03:07:29;;;;;;;38.63;15.50;;;11.80;99.90;;;;;;5068011;28;20592;-66
2021/10/02 03:09:59;;;;;;;33.00;16.03;;;11.70;99.90;;;;;;5068214;28;20235;-66
2021/10/02 03:12:32;;;;;;;31.77;15.50;;;11.70;99.90;;;;;;5067513;28;20751;-66
2021/10/02 03:15:02;;;;;;;32.43;15.73;;;11.60;99.90;;;;;;5071414;28;20233;-66
2021/10/02 03:17:32;;;;;;;30.37;16.20;;;11.60;99.90;;;;;;5067661;28;20247;-65
2021/10/02 03:20:02;;;;;;;35.30;15.37;;;11.60;99.90;;;;;;5065804;28;20239;-66
2021/10/02 03:22:37;;;;;;;30.53;15.93;;;11.60;99.90;;;;;;5063161;28;20203;-66
2021/10/02 03:25:06;;;;;;;33.70;17.00;;;11.60;99.90;;;;;;5063661;28;20469;-66
2021/10/02 03:27:36;;;;;;;35.53;16.93;;;11.60;99.90;;;;;;5070640;28;20257;-65
2021/10/02 03:30:04;;;;;;;35.77;16.10;;;11.60;99.90;;;;;;5065256;28;20193;-66
2021/10/02 03:32:34;;;;;;;35.77;17.20;;;11.50;99.90;;;;;;5069116;28;20195;-66
2021/10/02 03:35:03;;;;;;;37.93;17.80;;;11.50;99.90;;;;;;5062472;28;20197;-66
2021/10/02 03:37:31;;;;;;;33.83;17.20;;;11.50;99.90;;;;;;5063250;28;20215;-65
2021/10/02 03:40:00;;;;;;;41.40;16.67;;;11.40;99.90;;;;;;5070648;28;20246;-66
2021/10/02 03:42:28;;;;;;;42.37;18.43;;;11.40;99.90;;;;;;5069996;28;20742;-66
2021/10/02 03:44:56;;;;;;;41.03;18.20;;;11.30;99.90;;;;;;5069813;28;20235;-65
2021/10/02 03:47:25;;;;;;;38.57;18.30;;;11.30;99.90;;;;;;5070064;28;20204;-66
2021/10/02 03:49:55;;;;;;;41.00;18.00;;;11.30;99.90;;;;;;5072176;28;20194;-66
2021/10/02 03:52:23;;;;;;;44.50;20.10;;;11.30;99.90;;;;;;5061530;28;20192;-65
2021/10/02 03:54:52;;;;;;;49.13;21.00;;;11.40;99.90;;;;;;5063129;28;20196;-66
2021/10/02 03:57:20;;;;;;;53.70;21.87;;;11.40;99.90;;;;;;5064704;28;20224;-65
2021/10/02 03:59:48;;;;;;;66.67;24.20;;;11.50;99.90;;;;;;5062290;28;20252;-66
2021/10/02 04:02:17;;;;;;;70.93;24.00;;;11.50;99.90;;;;;;5062596;28;20283;-66
2021/10/02 04:04:45;;;;;;;65.03;25.10;;;11.60;99.90;;;;;;5071667;28;20219;-66
2021/10/02 04:07:15;;;;;;;76.17;25.63;;;11.60;99.90;;;;;;5068572;28;20281;-66
2021/10/02 04:09:44;;;;;;;75.10;25.30;;;11.60;99.90;;;;;;5074139;28;20248;-65
2021/10/02 04:12:12;;;;;;;66.10;25.93;;;11.60;99.90;;;;;;5068906;28;20188;-66
2021/10/02 04:15:07;;;;;;;85.73;27.77;;;11.60;99.90;;;;;;5075763;28;20206;-66
2021/10/02 04:17:36;;;;;;;73.17;27.30;;;11.60;99.90;;;;;;5059375;28;20223;-66
2021/10/02 04:20:06;;;;;;;81.33;26.97;;;11.60;99.90;;;;;;5075143;28;20242;-66
2021/10/02 04:22:36;;;;;;;83.60;29.03;;;11.60;99.90;;;;;;5073408;28;20198;-65
2021/10/02 04:25:05;;;;;;;95.23;29.97;;;11.70;99.90;;;;;;5068042;28;20234;-66
2021/10/02 04:27:34;;;;;;;86.20;27.97;;;11.70;99.90;;;;;;5067433;28;20318;-65
2021/10/02 04:30:02;;;;;;;94.93;29.13;;;11.70;99.90;;;;;;5070324;28;20192;-65
2021/10/02 04:32:31;;;;;;;84.53;29.57;;;11.60;99.90;;;;;;5069681;28;20202;-65
2021/10/02 04:34:59;;;;;;;79.70;27.13;;;11.60;99.90;;;;;;5077858;28;20220;-66
2021/10/02 04:37:28;;;;;;;84.20;27.47;;;11.70;99.90;;;;;;5067073;28;20231;-66
2021/10/02 04:39:58;;;;;;;89.90;28.47;;;11.60;99.90;;;;;;5075470;28;20300;-66
2021/10/02 04:42:26;;;;;;;81.33;27.07;;;11.60;99.90;;;;;;5068973;28;20246;-66
2021/10/02 04:44:55;;;;;;;86.73;26.17;;;11.50;99.90;;;;;;5078420;28;20252;-65
2021/10/02 04:47:24;;;;;;;88.47;27.60;;;11.60;99.90;;;;;;5070094;28;20280;-65
2021/10/02 04:49:53;;;;;;;86.27;26.50;;;11.60;99.90;;;;;;5069773;28;20192;-66
2021/10/02 04:52:21;;;;;;;97.10;27.93;;;11.60;99.90;;;;;;5072132;28;20192;-66
2021/10/02 04:54:50;;;;;;;101.90;27.13;;;11.50;99.90;;;;;;5073034;28;20199;-66
2021/10/02 04:57:20;;;;;;;94.53;28.67;;;11.50;99.90;;;;;;5071213;28;20192;-66
2021/10/02 04:59:48;;;;;;;96.57;28.47;;;11.50;99.90;;;;;;5069117;28;20409;-66
2021/10/02 05:02:16;;;;;;;94.07;27.57;;;11.60;99.90;;;;;;5063065;28;20609;-65
2021/10/02 05:04:45;;;;;;;81.67;26.80;;;11.60;99.90;;;;;;5067871;28;20299;-66
2021/10/02 05:07:13;;;;;;;64.47;23.53;;;11.50;99.90;;;;;;5066940;28;20192;-65
2021/10/02 05:09:42;;;;;;;71.87;25.13;;;11.70;99.90;;;;;;5066627;28;20198;-66
2021/10/02 05:12:11;;;;;;;51.63;21.80;;;11.70;99.90;;;;;;5069872;28;20199;-65
2021/10/02 05:14:41;;;;;;;55.93;22.30;;;11.80;99.90;;;;;;5074902;28;20190;-66
2021/10/02 05:17:11;;;;;;;46.03;19.40;;;11.80;99.90;;;;;;5073187;28;20219;-66
2021/10/02 05:19:40;;;;;;;47.03;19.63;;;11.80;99.90;;;;;;5070991;28;20203;-66
2021/10/02 05:22:08;;;;;;;37.80;18.17;;;11.80;99.90;;;;;;5065615;28;20266;-65
2021/10/02 05:24:37;;;;;;;39.83;19.00;;;11.80;99.90;;;;;;5070348;28;20188;-66
2021/10/02 05:27:08;;;;;;;45.67;18.93;;;11.80;99.90;;;;;;5067470;28;20204;-66
2021/10/02 05:29:37;;;;;;;42.93;17.97;;;11.80;99.90;;;;;;5071399;28;20258;-65
2021/10/02 05:32:10;;;;;;;42.00;17.83;;;11.80;99.90;;;;;;5068466;28;20604;-65
2021/10/02 05:34:39;;;;;;;41.10;17.53;;;11.80;99.90;;;;;;5066309;28;20193;-66
2021/10/02 05:37:08;;;;;;;41.47;18.47;;;11.80;99.90;;;;;;5069931;28;20259;-66
2021/10/02 05:39:36;;;;;;;43.77;18.20;;;11.80;99.90;;;;;;5067457;28;20188;-65
2021/10/02 05:42:05;;;;;;;34.37;16.57;;;11.80;99.90;;;;;;5066417;28;20200;-65
2021/10/02 05:44:34;;;;;;;32.87;16.50;;;11.70;99.90;;;;;;5064349;28;20196;-66
2021/10/02 05:47:02;;;;;;;38.90;16.57;;;11.70;99.90;;;;;;5059803;28;20277;-66
2021/10/02 05:49:32;;;;;;;34.03;16.03;;;11.60;99.90;;;;;;5065602;28;20548;-66
2021/10/02 05:52:01;;;;;;;38.00;17.40;;;11.60;99.90;;;;;;5070348;28;20792;-65
2021/10/02 05:54:30;;;;;;;34.87;16.07;;;11.60;99.90;;;;;;5062469;28;20670;-66
2021/10/02 05:56:58;;;;;;;42.13;17.07;;;11.60;99.90;;;;;;5063888;28;20204;-66
2021/10/02 05:59:26;;;;;;;38.30;17.00;;;11.60;99.90;;;;;;5065627;28;20192;-67
2021/10/02 06:01:55;;;;;;;39.47;17.03;;;11.60;99.90;;;;;;5060931;28;20219;-66
2021/10/02 06:04:23;;;;;;;35.03;16.50;;;11.50;99.90;;;;;;5062597;28;20198;-67
2021/10/02 06:06:54;;;;;;;38.20;16.97;;;11.60;99.90;;;;;;5061937;28;20237;-67
2021/10/02 06:09:22;;;;;;;35.97;17.17;;;11.60;99.90;;;;;;5063801;28;20196;-66
2021/10/02 06:11:52;;;;;;;39.77;18.23;;;11.60;99.90;;;;;;5067490;28;20192;-66
2021/10/02 06:14:20;;;;;;;42.83;18.67;;;11.70;99.90;;;;;;5063177;28;20702;-66
2021/10/02 06:16:48;;;;;;;34.40;17.57;;;11.70;99.90;;;;;;5069662;28;20681;-66
2021/10/02 06:19:17;;;;;;;39.63;18.90;;;11.80;99.90;;;;;;5065352;28;20669;-66
2021/10/02 06:21:46;;;;;;;40.13;18.30;;;11.80;99.90;;;;;;5057149;28;20216;-66
2021/10/02 06:24:16;;;;;;;43.17;18.67;;;11.90;99.90;;;;;;5067755;28;20187;-66
2021/10/02 06:26:44;;;;;;;38.80;18.77;;;11.90;99.90;;;;;;5061424;28;20192;-67
2021/10/02 06:29:13;;;;;;;45.37;20.00;;;11.90;99.90;;;;;;5062639;28;20738;-66
2021/10/02 06:31:41;;;;;;;40.37;19.50;;;11.90;99.90;;;;;;5059492;28;20184;-66
2021/10/02 06:34:09;;;;;;;47.57;20.87;;;12.00;99.90;;;;;;5061221;28;20276;-66
2021/10/02 06:36:38;;;;;;;42.67;20.80;;;12.00;99.90;;;;;;5065871;28;20184;-66
2021/10/02 06:39:06;;;;;;;42.10;20.37;;;12.00;99.90;;;;;;5068952;28;20334;-66
2021/10/02 06:41:36;;;;;;;42.97;20.50;;;12.10;99.90;;;;;;5067652;28;20212;-66
2021/10/02 06:44:07;;;;;;;43.50;20.40;;;12.10;99.90;;;;;;5062942;28;20286;-66
2021/10/02 06:46:35;;;;;;;38.03;19.93;;;12.10;99.90;;;;;;5064465;28;20241;-66
2021/10/02 06:49:04;;;;;;;41.87;19.70;;;12.20;99.90;;;;;;5074507;28;20206;-66
2021/10/02 06:51:32;;;;;;;47.27;21.10;;;12.30;99.90;;;;;;5080631;28;20195;-66
2021/10/02 06:54:01;;;;;;;47.20;20.43;;;12.30;99.90;;;;;;5072602;28;20192;-66
2021/10/02 06:56:29;;;;;;;40.20;19.30;;;12.40;99.90;;;;;;5070042;28;20282;-67
2021/10/02 06:58:58;;;;;;;34.70;18.50;;;12.40;99.90;;;;;;5072644;28;20617;-66
2021/10/02 07:01:27;;;;;;;33.83;19.13;;;12.40;99.90;;;;;;5082880;28;20313;-66
2021/10/02 07:03:58;;;;;;;36.53;17.87;;;12.50;99.90;;;;;;5074311;28;20273;-66
2021/10/02 07:06:27;;;;;;;33.07;18.17;;;12.50;99.90;;;;;;5072408;28;20715;-66
2021/10/02 07:08:56;;;;;;;36.03;17.77;;;12.60;99.90;;;;;;5064353;28;21068;-66
2021/10/02 07:11:26;;;;;;;35.57;18.03;;;12.60;99.90;;;;;;5074496;28;20192;-66
2021/10/02 07:13:55;;;;;;;34.23;17.43;;;12.60;99.90;;;;;;5056154;28;20597;-66
2021/10/02 07:16:24;;;;;;;35.67;18.57;;;12.70;99.90;;;;;;5074922;28;20199;-66
2021/10/02 07:18:54;;;;;;;33.77;17.63;;;12.70;99.90;;;;;;5077670;28;20705;-67
2021/10/02 07:21:23;;;;;;;34.20;18.10;;;12.80;99.90;;;;;;5066420;28;20682;-66
2021/10/02 07:23:51;;;;;;;40.30;19.17;;;12.80;99.90;;;;;;5078405;28;20228;-66
2021/10/02 07:26:19;;;;;;;39.43;18.07;;;12.80;99.90;;;;;;5075261;28;20191;-67
2021/10/02 07:28:48;;;;;;;36.50;18.23;;;12.90;99.90;;;;;;5072945;28;20234;-66
2021/10/02 07:31:16;;;;;;;37.77;19.00;;;12.90;99.90;;;;;;5058735;28;20250;-66
2021/10/02 07:33:47;;;;;;;34.57;19.30;;;12.90;99.90;;;;;;5073397;28;20200;-67
2021/10/02 07:36:16;;;;;;;30.23;18.93;;;12.90;99.90;;;;;;5080997;28;20282;-66
2021/10/02 07:38:44;;;;;;;32.20;18.53;;;12.90;99.90;;;;;;5064246;28;20196;-66
2021/10/02 07:41:14;;;;;;;40.53;19.07;;;13.00;99.90;;;;;;5079382;28;20651;-66
2021/10/02 07:43:45;;;;;;;33.03;18.10;;;13.00;99.90;;;;;;5083169;28;20198;-66
2021/10/02 07:46:16;;;;;;;33.37;17.73;;;13.00;99.90;;;;;;5077296;28;20606;-66
2021/10/02 07:48:46;;;;;;;33.80;17.97;;;13.10;99.90;;;;;;5074232;28;20192;-66
2021/10/02 07:51:15;;;;;;;35.20;17.63;;;13.20;99.90;;;;;;5083923;28;20675;-66
2021/10/02 07:53:43;;;;;;;33.47;17.97;;;13.20;99.90;;;;;;5084668;28;20692;-66
2021/10/02 07:56:12;;;;;;;29.00;16.20;;;13.20;99.90;;;;;;5063989;28;20250;-66
2021/10/02 07:58:41;;;;;;;33.70;17.00;;;13.20;99.90;;;;;;5073115;28;20250;-66
2021/10/02 08:01:11;;;;;;;28.27;16.23;;;13.20;99.90;;;;;;5081205;28;20231;-66
2021/10/02 08:03:41;;;;;;;27.13;15.30;;;13.30;99.90;;;;;;5082328;28;20192;-65
2021/10/02 08:06:11;;;;;;;25.93;15.87;;;13.30;99.90;;;;;;5066861;28;20223;-66
2021/10/02 08:08:42;;;;;;;32.03;16.40;;;13.40;99.90;;;;;;5085846;28;20616;-66
2021/10/02 08:11:11;;;;;;;27.13;16.57;;;13.50;99.90;;;;;;5082228;28;20215;-66
2021/10/02 08:13:40;;;;;;;29.10;16.00;;;13.70;99.90;;;;;;5082964;28;20191;-66
2021/10/02 08:16:09;;;;;;;25.40;14.33;;;14.00;99.90;;;;;;5074066;28;20191;-67
2021/10/02 08:18:40;;;;;;;26.60;13.53;;;14.20;99.90;;;;;;5082328;28;20318;-67
2021/10/02 08:21:11;;;;;;;24.20;12.47;;;14.30;99.90;;;;;;5070517;28;20558;-66
2021/10/02 08:23:41;;;;;;;24.30;12.80;;;14.30;99.90;;;;;;5056388;28;20663;-66
2021/10/02 08:26:14;;;;;;;19.93;11.97;;;14.40;99.90;;;;;;5066302;28;20231;-66
2021/10/02 08:28:45;;;;;;;21.10;11.37;;;14.50;99.90;;;;;;5067044;28;20222;-66
2021/10/02 08:31:15;;;;;;;18.23;11.23;;;14.50;99.90;;;;;;5064321;28;20603;-66
2021/10/02 08:33:44;;;;;;;18.90;10.30;;;14.50;99.90;;;;;;5072585;28;20256;-66
2021/10/02 08:36:15;;;;;;;22.53;10.33;;;14.50;99.90;;;;;;5068983;28;20287;-66
2021/10/02 08:38:44;;;;;;;15.93;9.53;;;14.40;99.90;;;;;;5066652;28;20196;-66
2021/10/02 08:41:18;;;;;;;18.53;10.10;;;14.40;99.90;;;;;;5067372;28;20565;-66
2021/10/02 08:43:49;;;;;;;15.50;10.17;;;14.40;99.90;;;;;;5062827;28;20241;-66
2021/10/02 08:46:20;;;;;;;19.03;9.07;;;14.40;99.90;;;;;;5069972;28;20188;-67
2021/10/02 08:49:13;;;;;;;18.20;9.20;;;14.50;99.90;;;;;;5071331;28;20604;-67
2021/10/02 08:51:47;;;;;;;16.47;9.07;;;14.40;99.90;;;;;;5065136;28;20246;-66
2021/10/02 08:54:18;;;;;;;17.67;8.83;;;14.40;99.90;;;;;;5070909;28;20245;-66
2021/10/02 08:56:47;;;;;;;17.37;8.90;;;14.40;99.90;;;;;;5070547;28;20282;-66
2021/10/02 08:59:16;;;;;;;18.17;8.47;;;14.30;99.90;;;;;;5072180;28;20234;-66
2021/10/02 09:01:44;;;;;;;16.30;9.23;;;14.40;99.90;;;;;;5073725;28;20248;-66
2021/10/02 09:04:20;;;;;;;17.00;8.47;;;14.40;99.90;;;;;;5071627;28;20222;-66
2021/10/02 09:06:50;;;;;;;16.30;8.63;;;14.50;99.90;;;;;;5071037;28;20305;-66
2021/10/02 09:09:19;;;;;;;15.57;8.50;;;14.50;99.90;;;;;;5079998;28;20581;-66
2021/10/02 09:11:47;;;;;;;15.73;7.80;;;14.60;99.90;;;;;;5079031;28;20184;-66
2021/10/02 09:14:15;;;;;;;16.33;7.90;;;14.70;99.90;;;;;;5078919;28;20241;-66
2021/10/02 09:16:44;;;;;;;16.30;7.77;;;14.80;99.90;;;;;;5076785;28;20203;-66
2021/10/02 09:19:13;;;;;;;13.77;8.23;;;14.90;99.90;;;;;;5087125;28;20230;-66
2021/10/02 09:21:45;;;;;;;16.87;8.50;;;14.90;99.90;;;;;;5075884;28;20196;-65
2021/10/02 09:24:26;;;;;;;19.70;9.53;;;14.90;99.90;;;;;;5067183;28;20195;-66
2021/10/02 09:26:55;;;;;;;13.00;8.50;;;15.00;99.90;;;;;;5063532;28;20197;-66
2021/10/02 09:29:40;;;;;;;19.23;9.87;;;15.00;99.90;;;;;;5086134;28;20203;-66
2021/10/02 09:32:10;;;;;;;19.60;9.93;;;15.00;99.90;;;;;;5060707;28;20291;-66
2021/10/02 09:34:47;;;;;;;14.47;8.83;;;15.00;99.90;;;;;;5070040;28;20222;-66
2021/10/02 09:37:27;;;;;;;16.37;9.53;;;15.00;99.90;;;;;;5060317;28;20276;-66
2021/10/02 09:40:00;;;;;;;16.00;8.80;;;14.90;99.90;;;;;;5065331;28;20224;-66
2021/10/02 09:42:33;;;;;;;19.50;9.60;;;15.00;99.90;;;;;;5065347;28;20440;-66
2021/10/02 09:45:07;;;;;;;12.47;8.13;;;15.00;99.90;;;;;;5061764;28;20627;-66
2021/10/02 09:47:37;;;;;;;15.57;8.53;;;15.00;99.90;;;;;;5068600;28;20204;-66
2021/10/02 09:50:10;;;;;;;16.43;8.23;;;15.10;99.90;;;;;;5070478;28;20282;-66
2021/10/02 09:52:40;;;;;;;10.13;6.87;;;15.10;99.90;;;;;;5066427;28;20189;-66
2021/10/02 09:55:20;;;;;;;22.80;13.00;;;15.10;99.90;;;;;;5062338;28;20257;-65
2021/10/02 09:57:50;;;;;;;20.43;8.80;;;15.20;99.90;;;;;;5060650;28;20579;-66
2021/10/02 10:00:21;;;;;;;13.97;6.50;;;15.20;99.90;;;;;;5064793;28;20192;-67
2021/10/02 10:02:49;;;;;;;10.90;6.10;;;15.30;99.90;;;;;;5067638;28;20687;-66
2021/10/02 10:05:18;;;;;;;15.30;7.27;;;15.30;99.90;;;;;;5067769;28;20196;-66
2021/10/02 10:07:55;;;;;;;24.60;13.17;;;15.40;99.90;;;;;;5067245;28;20188;-65
2021/10/02 10:10:26;;;;;;;11.10;5.40;;;15.40;99.90;;;;;;5069339;28;20647;-66
2021/10/02 10:12:55;;;;;;;8.57;4.00;;;15.50;99.90;;;;;;5065155;28;20193;-66
2021/10/02 10:15:30;;;;;;;5.97;3.80;;;15.60;99.90;;;;;;5071837;28;20187;-66
2021/10/02 10:17:59;;;;;;;6.93;3.57;;;15.70;99.90;;;;;;5065583;28;20256;-66
2021/10/02 10:20:33;;;;;;;7.50;3.73;;;15.70;99.90;;;;;;5065909;28;20587;-66
2021/10/02 10:23:03;;;;;;;5.47;2.73;;;15.50;99.90;;;;;;5071776;28;20246;-66
2021/10/02 10:25:34;;;;;;;9.83;2.80;;;15.50;99.90;;;;;;5066945;28;20677;-66
2021/10/02 10:28:05;;;;;;;4.87;2.67;;;15.60;99.90;;;;;;5065882;28;20230;-66
2021/10/02 10:30:36;;;;;;;7.83;2.70;;;15.60;99.90;;;;;;5066279;28;20200;-66
2021/10/02 10:33:11;;;;;;;4.87;2.40;;;15.60;99.90;;;;;;5065785;28;20252;-66
2021/10/02 10:35:42;;;;;;;6.70;2.40;;;15.60;99.90;;;;;;5069276;28;20249;-66
2021/10/02 10:38:12;;;;;;;2.63;2.23;;;15.70;99.90;;;;;;5068070;28;20219;-66
2021/10/02 10:40:42;;;;;;;7.13;2.63;;;15.70;99.90;;;;;;5066867;28;20674;-65
2021/10/02 10:43:14;;;;;;;3.50;3.20;;;15.70;99.90;;;;;;5070456;28;20630;-66
2021/10/02 10:45:42;;;;;;;7.73;3.00;;;15.70;99.90;;;;;;5068432;28;20196;-66
2021/10/02 10:48:11;;;;;;;6.60;2.57;;;15.70;99.90;;;;;;5087274;28;20199;-66
2021/10/02 10:50:42;;;;;;;6.37;2.63;;;15.70;99.90;;;;;;5065871;28;20191;-66
2021/10/02 10:53:11;;;;;;;8.60;3.17;;;15.70;99.90;;;;;;5067505;28;20608;-66
2021/10/02 10:55:54;;;;;;;5.93;2.67;;;15.70;99.90;;;;;;5075821;28;20219;-66
2021/10/02 10:58:25;;;;;;;2.57;2.37;;;15.60;99.90;;;;;;5066571;28;20188;-66
2021/10/02 11:00:54;;;;;;;5.00;2.50;;;15.60;99.90;;;;;;5064368;28;20555;-66
2021/10/02 11:03:37;;;;;;;3.77;2.47;;;15.60;99.90;;;;;;5066933;28;20211;-66
2021/10/02 11:06:07;;;;;;;7.13;3.40;;;15.50;99.90;;;;;;5064745;28;20494;-66
2021/10/02 11:09:04;;;;;;;6.63;2.90;;;15.60;99.90;;;;;;5061283;28;20212;-66
2021/10/02 11:11:56;;;;;;;5.17;2.83;;;15.60;99.90;;;;;;5016770;28;20235;-66
2021/10/02 11:14:41;;;;;;;3.93;2.30;;;15.60;99.90;;;;;;5067911;28;20223;-66
2021/10/02 11:17:09;;;;;;;6.13;2.50;;;15.50;99.90;;;;;;5058230;28;20762;-66
2021/10/02 11:19:43;;;;;;;3.57;2.43;;;15.40;99.90;;;;;;5067912;28;20280;-65
2021/10/02 11:22:53;;;;;;;5.77;2.70;;;15.50;99.90;;;;;;5062483;28;20195;-66
2021/10/02 11:25:23;;;;;;;4.67;3.40;;;15.50;99.90;;;;;;5053820;28;20620;-66
2021/10/02 11:27:53;;;;;;;10.17;6.90;;;15.60;99.90;;;;;;5064263;28;20255;-66
2021/10/02 11:30:23;;;;;;;9.40;3.67;;;15.50;99.90;;;;;;5060766;28;20196;-66
2021/10/02 11:32:51;;;;;;;2.80;2.33;;;15.50;99.90;;;;;;5059455;28;20192;-66
2021/10/02 11:35:34;;;;;;;6.70;4.07;;;15.50;99.90;;;;;;5074214;28;20200;-66
2021/10/02 11:38:07;;;;;;;3.97;3.33;;;15.50;99.90;;;;;;5062204;28;20543;-66
2021/10/02 11:40:51;;;;;;;4.07;3.77;;;15.50;99.90;;;;;;5071311;28;20258;-66
2021/10/02 11:43:27;;;;;;;6.53;2.97;;;15.50;99.90;;;;;;5067036;28;20231;-66
2021/10/02 11:46:07;;;;;;;3.27;2.70;;;15.70;99.90;;;;;;5060692;28;20699;-66
2021/10/02 11:48:46;;;;;;;4.63;2.70;;;15.80;99.90;;;;;;5061636;28;20604;-66
2021/10/02 11:51:28;;;;;;;4.37;2.60;;;15.90;99.90;;;;;;5068915;28;20593;-66
2021/10/02 11:54:12;;;;;;;2.20;2.10;;;16.00;99.90;;;;;;5061917;28;20758;-66
2021/10/02 11:56:42;;;;;;;5.17;2.53;;;16.00;99.90;;;;;;5062916;28;21013;-66
2021/10/02 11:59:12;;;;;;;6.90;2.60;;;16.10;99.90;;;;;;5065182;28;20221;-65
2021/10/02 12:01:43;;;;;;;4.30;3.30;;;16.10;99.90;;;;;;5065326;28;20219;-66
2021/10/02 12:04:14;;;;;;;7.60;2.97;;;16.00;99.90;;;;;;5066595;28;20303;-66
2021/10/02 12:06:46;;;;;;;5.07;2.60;;;15.90;99.90;;;;;;5066693;28;20237;-66
2021/10/02 12:09:16;;;;;;;4.10;2.80;;;15.90;99.90;;;;;;5068393;28;20224;-66
2021/10/02 12:11:46;;;;;;;3.30;2.53;;;16.00;99.90;;;;;;5063163;28;20286;-66
2021/10/02 12:14:18;;;;;;;2.60;2.40;;;16.00;99.90;;;;;;5074196;28;20225;-66
2021/10/02 12:16:51;;;;;;;4.10;2.20;;;16.10;99.90;;;;;;5066185;28;20225;-66
2021/10/02 12:19:21;;;;;;;3.53;2.30;;;16.20;99.90;;;;;;5065868;28;20231;-66
2021/10/02 12:21:51;;;;;;;6.80;2.70;;;16.20;99.90;;;;;;5065056;28;20609;-66
2021/10/02 12:24:22;;;;;;;4.67;2.13;;;16.20;99.90;;;;;;5065564;28;20204;-65
2021/10/02 12:26:56;;;;;;;2.67;1.90;;;16.30;99.90;;;;;;5070019;28;20424;-66
2021/10/02 12:29:29;;;;;;;7.07;2.00;;;16.30;99.90;;;;;;5070194;28;20286;-66
2021/10/02 12:32:00;;;;;;;3.27;2.10;;;16.30;99.90;;;;;;5067103;28;20452;-66
2021/10/02 12:34:31;;;;;;;2.83;1.90;;;16.30;99.90;;;;;;5066378;28;20722;-66
2021/10/02 12:37:02;;;;;;;3.70;1.67;;;16.30;99.90;;;;;;5048777;28;20193;-66
2021/10/02 12:39:37;;;;;;;3.90;1.80;;;16.30;99.90;;;;;;5071180;28;20227;-66
2021/10/02 12:42:07;;;;;;;4.63;1.80;;;16.30;99.90;;;;;;5068397;28;20461;-65
2021/10/02 12:44:40;;;;;;;4.20;2.10;;;16.40;99.90;;;;;;5067448;28;20232;-65
2021/10/02 12:47:10;;;;;;;6.03;1.67;;;16.50;99.90;;;;;;5063250;28;20359;-66
2021/10/02 12:49:43;;;;;;;3.50;1.80;;;16.50;99.90;;;;;;5065565;28;20253;-66
2021/10/02 12:52:14;;;;;;;7.80;1.80;;;16.50;99.90;;;;;;5060064;28;20292;-66
2021/10/02 12:54:47;;;;;;;5.23;1.87;;;16.70;99.90;;;;;;5070638;28;20193;-66
2021/10/02 12:57:17;;;;;;;6.33;1.90;;;16.60;99.90;;;;;;5073787;28;20268;-65
2021/10/02 12:59:50;;;;;;;4.77;1.83;;;16.50;99.90;;;;;;5073930;28;20227;-66
2021/10/02 13:02:22;;;;;;;3.67;1.67;;;16.50;99.90;;;;;;5064678;28;20192;-66
2021/10/02 13:04:51;;;;;;;4.73;2.03;;;16.30;99.90;;;;;;5073279;28;20212;-66
2021/10/02 13:07:28;;;;;;;2.70;1.83;;;16.30;99.90;;;;;;5052925;28;20247;-66
2021/10/02 13:09:59;;;;;;;5.07;2.63;;;16.20;99.90;;;;;;5061986;28;20189;-66
2021/10/02 13:12:29;;;;;;;3.73;2.20;;;16.20;99.90;;;;;;5068723;28;20203;-66
2021/10/02 13:15:00;;;;;;;8.43;2.83;;;16.30;99.90;;;;;;5070295;28;20722;-66
2021/10/02 13:17:28;;;;;;;6.77;2.83;;;16.30;99.90;;;;;;5067114;28;20321;-66
2021/10/02 13:20:13;;;;;;;8.17;2.50;;;16.40;99.90;;;;;;5068871;28;20230;-66
2021/10/02 13:22:45;;;;;;;3.77;3.30;;;16.40;99.90;;;;;;5067312;28;20296;-66
2021/10/02 13:25:20;;;;;;;5.70;2.97;;;16.50;99.90;;;;;;5061308;28;20746;-65
2021/10/02 13:27:49;;;;;;;7.00;2.70;;;16.50;99.90;;;;;;5070564;28;20823;-66
2021/10/02 13:30:22;;;;;;;4.53;2.53;;;16.50;99.90;;;;;;5069969;28;20224;-66
2021/10/02 13:32:59;;;;;;;5.77;2.30;;;16.70;99.90;;;;;;5069927;28;20224;-66
2021/10/02 13:35:33;;;;;;;3.97;2.70;;;16.80;99.90;;;;;;5072275;28;20234;-66
2021/10/02 13:38:01;;;;;;;5.73;2.63;;;16.90;99.90;;;;;;5063107;28;20189;-65
2021/10/02 13:40:31;;;;;;;7.07;2.97;;;16.90;99.90;;;;;;5076419;28;20228;-66
2021/10/02 13:43:03;;;;;;;6.63;2.50;;;16.90;99.90;;;;;;5069176;28;20293;-66
2021/10/02 13:45:35;;;;;;;8.67;7.47;;;16.90;99.90;;;;;;5071922;28;20854;-66